Time;durP1;ratioP1;P1;durP2;ratioP2;P2;SDS_P1;SDS_P2;PMS_P1;PMS_P2;Temp;Humidity;BMP_temperature;BMP_pressure;BME280_temperature;BME280_humidity;BME280_pressure;Samples;Min_cycle;Max_cycle;Signal;HPM_P1;HPM_P2
2023/05/05 00:01:18;;;;;;;6.07;3.30;;;;;;;;;;5083343;28;20032;-71
2023/05/05 00:03:43;;;;;;;4.00;3.13;;;;;;;;;;5083931;28;20571;-70
2023/05/05 00:06:09;;;;;;;7.03;3.17;;;;;;;;;;5077096;28;20739;-69
2023/05/05 00:08:34;;;;;;;9.48;3.65;;;;;;;;;;5071357;28;20649;-70
2023/05/05 00:10:59;;;;;;;5.63;2.95;;;;;;;;;;5085315;28;20738;-69
2023/05/05 00:13:25;;;;;;;4.88;3.28;;;;;;;;;;5079394;28;20035;-69
2023/05/05 00:15:52;;;;;;;6.30;3.55;;;;;;;;;;5069003;28;20597;-70
2023/05/05 00:18:18;;;;;;;4.15;2.92;;;;;;;;;;5075925;28;20036;-70
2023/05/05 00:20:47;;;;;;;5.82;3.33;;;;;;;;;;5083314;28;20123;-70
2023/05/05 00:23:13;;;;;;;5.97;3.65;;;;;;;;;;5085199;28;20059;-70
2023/05/05 00:25:39;;;;;;;4.80;3.38;;;;;;;;;;5085867;28;20528;-69
2023/05/05 00:28:05;;;;;;;7.28;3.50;;;;;;;;;;5084448;28;20052;-70
2023/05/05 00:30:30;;;;;;;4.50;3.17;;;;;;;;;;5078688;28;20071;-70
2023/05/05 00:32:56;;;;;;;5.93;3.60;;;;;;;;;;5069194;28;20043;-69
2023/05/05 00:35:21;;;;;;;5.93;3.63;;;;;;;;;;5081417;28;20416;-69
2023/05/05 00:37:48;;;;;;;7.05;3.97;;;;;;;;;;5088401;28;20078;-69
2023/05/05 00:40:14;;;;;;;5.32;3.42;;;;;;;;;;5077973;28;20036;-70
2023/05/05 00:42:42;;;;;;;5.78;3.60;;;;;;;;;;5086315;28;20092;-69
2023/05/05 00:45:13;;;;;;;5.65;4.00;;;;;;;;;;5081962;28;20040;-69
2023/05/05 00:47:44;;;;;;;5.93;4.05;;;;;;;;;;5084846;28;20040;-70
2023/05/05 00:50:22;;;;;;;6.07;3.92;;;;;;;;;;5083779;28;20035;-71
2023/05/05 00:52:48;;;;;;;6.07;4.15;;;;;;;;;;5084732;28;20096;-70
2023/05/05 00:55:14;;;;;;;9.18;4.72;;;;;;;;;;5084750;28;20044;-70
2023/05/05 00:57:39;;;;;;;11.43;4.78;;;;;;;;;;5083379;28;20031;-70
2023/05/05 01:00:08;;;;;;;7.90;4.45;;;;;;;;;;5082959;28;20048;-70
2023/05/05 01:02:33;;;;;;;8.30;4.97;;;;;;;;;;5082180;28;20032;-70
2023/05/05 01:04:59;;;;;;;8.57;5.65;;;;;;;;;;5082628;28;20026;-70
2023/05/05 01:07:49;;;;;;;8.68;5.63;;;;;;;;;;5084592;28;20016;-70
2023/05/05 01:10:24;;;;;;;8.43;5.25;;;;;;;;;;5083326;28;20513;-70
2023/05/05 01:12:52;;;;;;;10.95;5.63;;;;;;;;;;5084825;28;21019;-70
2023/05/05 01:15:30;;;;;;;9.60;5.72;;;;;;;;;;5069377;28;20040;-70
2023/05/05 01:18:28;;;;;;;8.48;5.60;;;;;;;;;;5074412;28;20603;-70
2023/05/05 01:21:15;;;;;;;7.80;5.10;;;;;;;;;;5072540;28;20036;-70
2023/05/05 01:24:40;;;;;;;8.40;5.53;;;;;;;;;;5079900;28;20030;-70
2023/05/05 01:27:21;;;;;;;8.98;5.75;;;;;;;;;;5041083;28;20051;-71
2023/05/05 01:29:59;;;;;;;11.23;5.78;;;;;;;;;;5040853;28;20073;-70
2023/05/05 01:32:26;;;;;;;8.60;4.93;;;;;;;;;;5068261;28;20028;-70
2023/05/05 01:35:00;;;;;;;9.38;5.72;;;;;;;;;;5087578;28;20100;-70
2023/05/05 01:37:31;;;;;;;;;;;;;;;;;;5085725;28;20089;-71
2023/05/05 01:40:00;;;;;;;9.80;5.15;;;;;;;;;;5085043;28;19915;-70
2023/05/05 01:42:28;;;;;;;7.05;5.32;;;;;;;;;;5087093;28;20036;-70
2023/05/05 01:44:55;;;;;;;8.73;5.28;;;;;;;;;;5087649;28;20063;-70
2023/05/05 01:47:22;;;;;;;7.82;5.30;;;;;;;;;;5087086;28;20405;-70
2023/05/05 01:49:49;;;;;;;9.02;5.93;;;;;;;;;;5086051;28;20536;-70
2023/05/05 01:52:15;;;;;;;8.80;5.88;;;;;;;;;;5087624;28;20051;-71
2023/05/05 01:54:43;;;;;;;9.10;5.43;;;;;;;;;;5085306;28;20032;-70
2023/05/05 01:57:10;;;;;;;9.52;5.35;;;;;;;;;;5087432;28;20032;-70
2023/05/05 01:59:37;;;;;;;11.65;5.65;;;;;;;;;;5087769;28;20047;-70
2023/05/05 02:02:03;;;;;;;8.88;5.38;;;;;;;;;;5089454;28;20031;-70
2023/05/05 02:04:32;;;;;;;10.43;5.47;;;;;;;;;;5092748;28;20044;-70
2023/05/05 02:06:58;;;;;;;13.73;5.57;;;;;;;;;;5086459;28;20039;-70
2023/05/05 02:09:25;;;;;;;7.60;5.32;;;;;;;;;;5085210;28;20056;-70
2023/05/05 02:11:51;;;;;;;8.35;5.50;;;;;;;;;;5087361;28;20122;-70
2023/05/05 02:14:18;;;;;;;9.00;5.63;;;;;;;;;;5085472;28;20413;-70
2023/05/05 02:16:44;;;;;;;7.72;5.43;;;;;;;;;;5076309;28;20074;-70
2023/05/05 02:19:12;;;;;;;10.05;5.32;;;;;;;;;;5087014;28;20521;-70
2023/05/05 02:21:37;;;;;;;8.80;5.32;;;;;;;;;;5086567;28;20040;-71
2023/05/05 02:24:03;;;;;;;12.50;5.90;;;;;;;;;;5083828;28;20034;-70
2023/05/05 02:26:34;;;;;;;8.25;4.85;;;;;;;;;;5087491;28;20119;-70
2023/05/05 02:29:23;;;;;;;7.78;5.35;;;;;;;;;;5090232;28;20393;-69
2023/05/05 02:31:52;;;;;;;8.40;5.20;;;;;;;;;;5091970;28;20093;-71
2023/05/05 02:34:24;;;;;;;10.40;5.07;;;;;;;;;;5092288;28;20031;-71
2023/05/05 02:36:56;;;;;;;8.95;5.45;;;;;;;;;;5088021;28;20095;-70
2023/05/05 02:39:27;;;;;;;9.70;5.25;;;;;;;;;;5076896;28;20016;-70
2023/05/05 02:41:54;;;;;;;8.25;5.18;;;;;;;;;;5077908;28;20042;-70
2023/05/05 02:44:23;;;;;;;9.82;5.78;;;;;;;;;;5082028;28;20024;-70
2023/05/05 02:46:49;;;;;;;9.57;6.15;;;;;;;;;;5088551;28;20123;-71
2023/05/05 02:49:15;;;;;;;9.38;5.40;;;;;;;;;;5092033;28;20016;-71
2023/05/05 02:51:40;;;;;;;8.93;5.40;;;;;;;;;;5091263;28;20016;-70
2023/05/05 02:54:06;;;;;;;8.75;5.38;;;;;;;;;;5092123;28;20104;-70
2023/05/05 02:56:48;;;;;;;10.00;5.78;;;;;;;;;;5091710;28;20015;-70
2023/05/05 02:59:20;;;;;;;10.98;5.60;;;;;;;;;;5089656;28;20059;-69
2023/05/05 03:01:46;;;;;;;10.75;5.72;;;;;;;;;;5081881;28;20067;-70
2023/05/05 03:04:16;;;;;;;8.90;5.38;;;;;;;;;;5087327;28;20044;-70
2023/05/05 03:06:47;;;;;;;7.05;4.90;;;;;;;;;;5090818;28;20028;-69
2023/05/05 03:09:25;;;;;;;8.63;5.05;;;;;;;;;;5091790;28;20529;-70
2023/05/05 03:12:00;;;;;;;8.65;5.50;;;;;;;;;;5091382;28;20037;-70
2023/05/05 03:14:29;;;;;;;7.63;4.95;;;;;;;;;;5077753;28;20040;-70
2023/05/05 03:16:55;;;;;;;11.38;5.65;;;;;;;;;;5094366;28;20023;-70
2023/05/05 03:19:22;;;;;;;7.43;4.88;;;;;;;;;;5070774;28;20027;-70
2023/05/05 03:21:47;;;;;;;8.77;5.38;;;;;;;;;;5091260;28;20393;-71
2023/05/05 03:24:14;;;;;;;8.43;5.55;;;;;;;;;;5091795;28;20107;-70
2023/05/05 03:26:40;;;;;;;8.05;4.95;;;;;;;;;;5081605;28;20103;-71
2023/05/05 03:29:06;;;;;;;9.85;5.07;;;;;;;;;;5084978;28;20067;-70
2023/05/05 03:31:32;;;;;;;7.65;5.20;;;;;;;;;;5087581;28;20019;-71
2023/05/05 03:33:57;;;;;;;10.52;5.38;;;;;;;;;;5089682;28;20031;-71
2023/05/05 03:36:23;;;;;;;10.88;5.15;;;;;;;;;;5090653;28;20016;-70
2023/05/05 03:38:48;;;;;;;12.45;5.50;;;;;;;;;;5082111;28;20036;-71
2023/05/05 03:41:13;;;;;;;8.50;5.32;;;;;;;;;;5084491;28;20028;-71
2023/05/05 03:43:40;;;;;;;11.60;5.22;;;;;;;;;;5084900;28;20044;-71
2023/05/05 03:46:06;;;;;;;8.65;5.70;;;;;;;;;;5081998;28;20397;-70
2023/05/05 03:48:32;;;;;;;8.90;5.40;;;;;;;;;;5084614;28;20518;-70
2023/05/05 03:50:58;;;;;;;8.43;5.47;;;;;;;;;;5089691;28;20082;-70
2023/05/05 03:53:23;;;;;;;10.25;5.88;;;;;;;;;;5090579;28;20020;-71
2023/05/05 03:55:49;;;;;;;11.18;5.70;;;;;;;;;;5090813;28;20453;-71
2023/05/05 03:58:15;;;;;;;10.15;6.28;;;;;;;;;;5089576;28;20032;-71
2023/05/05 04:00:40;;;;;;;12.57;5.63;;;;;;;;;;5087480;28;20036;-70
2023/05/05 04:03:06;;;;;;;12.88;6.30;;;;;;;;;;5090762;28;20016;-70
2023/05/05 04:05:31;;;;;;;9.45;5.82;;;;;;;;;;5090294;28;20485;-71
2023/05/05 04:07:57;;;;;;;10.10;5.78;;;;;;;;;;5090872;28;20016;-71
2023/05/05 04:10:22;;;;;;;10.38;5.72;;;;;;;;;;5090940;28;20409;-71
2023/05/05 04:12:48;;;;;;;9.95;5.53;;;;;;;;;;5089746;28;20739;-71
2023/05/05 04:15:13;;;;;;;8.98;5.47;;;;;;;;;;5088460;28;20024;-70
2023/05/05 04:17:38;;;;;;;9.25;5.38;;;;;;;;;;5090698;28;20023;-71
2023/05/05 04:20:05;;;;;;;10.00;5.95;;;;;;;;;;5090477;28;20026;-71
2023/05/05 04:22:31;;;;;;;10.90;5.47;;;;;;;;;;5089713;28;20050;-71
2023/05/05 04:24:56;;;;;;;9.13;5.55;;;;;;;;;;5088954;28;20048;-70
2023/05/05 04:27:21;;;;;;;8.88;5.55;;;;;;;;;;5089413;28;20107;-70
2023/05/05 04:29:47;;;;;;;10.48;5.40;;;;;;;;;;5077448;28;20481;-71
2023/05/05 04:32:12;;;;;;;11.20;5.30;;;;;;;;;;5084377;28;20100;-71
2023/05/05 04:34:37;;;;;;;11.80;5.78;;;;;;;;;;5089066;28;20012;-70
2023/05/05 04:37:03;;;;;;;9.50;5.03;;;;;;;;;;5090660;28;20031;-70
2023/05/05 04:39:28;;;;;;;11.82;7.30;;;;;;;;;;5076799;28;20028;-70
2023/05/05 04:41:54;;;;;;;12.43;7.20;;;;;;;;;;5089971;28;20077;-71
2023/05/05 04:44:19;;;;;;;15.32;7.68;;;;;;;;;;5081900;28;20058;-71
2023/05/05 04:46:44;;;;;;;15.52;7.05;;;;;;;;;;5087807;28;20016;-70
2023/05/05 04:49:10;;;;;;;15.23;7.13;;;;;;;;;;5089921;28;20396;-71
2023/05/05 04:51:35;;;;;;;11.98;6.57;;;;;;;;;;5093803;28;20032;-71
2023/05/05 04:54:01;;;;;;;10.93;6.00;;;;;;;;;;5091522;28;20031;-70
2023/05/05 04:56:26;;;;;;;10.30;6.40;;;;;;;;;;5081301;28;20021;-70
2023/05/05 04:58:52;;;;;;;12.98;6.60;;;;;;;;;;5072959;28;20044;-70
2023/05/05 05:01:17;;;;;;;9.70;6.00;;;;;;;;;;5086915;28;20397;-71
2023/05/05 05:03:42;;;;;;;10.32;6.30;;;;;;;;;;5076888;28;20505;-70
2023/05/05 05:06:08;;;;;;;10.95;6.07;;;;;;;;;;5083679;28;20405;-70
2023/05/05 05:08:33;;;;;;;12.30;5.80;;;;;;;;;;5093378;28;20508;-71
2023/05/05 05:10:59;;;;;;;11.80;6.40;;;;;;;;;;5093998;28;20024;-70
2023/05/05 05:13:24;;;;;;;10.65;6.40;;;;;;;;;;5092604;28;20016;-70
2023/05/05 05:15:50;;;;;;;10.23;6.68;;;;;;;;;;5086007;28;20757;-70
2023/05/05 05:18:15;;;;;;;10.77;6.03;;;;;;;;;;5093444;28;20397;-71
2023/05/05 05:20:41;;;;;;;13.18;6.30;;;;;;;;;;5093862;28;20109;-71
2023/05/05 05:23:06;;;;;;;12.40;6.60;;;;;;;;;;5092345;28;20485;-71
2023/05/05 05:25:32;;;;;;;12.50;6.72;;;;;;;;;;5092057;28;20504;-70
2023/05/05 05:27:57;;;;;;;11.32;6.82;;;;;;;;;;5082200;28;20020;-71
2023/05/05 05:30:22;;;;;;;13.68;7.10;;;;;;;;;;5086847;28;20016;-71
2023/05/05 05:32:48;;;;;;;11.35;6.82;;;;;;;;;;5086759;28;20209;-71
2023/05/05 05:35:13;;;;;;;13.10;6.72;;;;;;;;;;5088686;28;20024;-71
2023/05/05 05:37:39;;;;;;;13.43;7.15;;;;;;;;;;5092422;28;20026;-71
2023/05/05 05:40:05;;;;;;;13.80;7.25;;;;;;;;;;5083629;28;20023;-71
2023/05/05 05:42:30;;;;;;;12.75;6.63;;;;;;;;;;5079305;28;20107;-72
2023/05/05 05:44:57;;;;;;;11.95;7.60;;;;;;;;;;5086423;28;20103;-71
2023/05/05 05:47:23;;;;;;;15.27;6.93;;;;;;;;;;5086577;28;20071;-71
2023/05/05 05:49:48;;;;;;;9.68;6.38;;;;;;;;;;5095544;28;20052;-70
2023/05/05 05:52:14;;;;;;;14.35;7.30;;;;;;;;;;5092127;28;20024;-71
2023/05/05 05:54:39;;;;;;;12.38;6.85;;;;;;;;;;5092983;28;20028;-71
2023/05/05 05:57:05;;;;;;;14.18;7.35;;;;;;;;;;5091317;28;20027;-70
2023/05/05 05:59:31;;;;;;;15.73;6.80;;;;;;;;;;5065787;28;20075;-74
2023/05/05 06:01:57;;;;;;;10.38;6.40;;;;;;;;;;5072403;28;20360;-71
2023/05/05 06:04:22;;;;;;;10.60;6.38;;;;;;;;;;5088714;28;20570;-71
2023/05/05 06:06:48;;;;;;;12.82;6.72;;;;;;;;;;5088169;28;20074;-71
2023/05/05 06:09:14;;;;;;;12.25;7.00;;;;;;;;;;5077466;28;20024;-71
2023/05/05 06:11:39;;;;;;;10.98;6.72;;;;;;;;;;5072555;28;20036;-71
2023/05/05 06:14:04;;;;;;;10.43;5.90;;;;;;;;;;5072593;28;20040;-71
2023/05/05 06:16:30;;;;;;;10.20;6.50;;;;;;;;;;5075848;28;20059;-71
2023/05/05 06:18:55;;;;;;;11.93;7.07;;;;;;;;;;5084747;28;20405;-71
2023/05/05 06:21:20;;;;;;;10.48;6.50;;;;;;;;;;5088528;28;20024;-71
2023/05/05 06:23:46;;;;;;;13.98;7.10;;;;;;;;;;5087070;28;20032;-71
2023/05/05 06:26:11;;;;;;;12.88;6.80;;;;;;;;;;5083947;28;20044;-71
2023/05/05 06:28:37;;;;;;;12.25;7.32;;;;;;;;;;5088439;28;20027;-71
2023/05/05 06:31:02;;;;;;;11.85;7.13;;;;;;;;;;5070804;28;20031;-71
2023/05/05 06:33:28;;;;;;;12.43;6.50;;;;;;;;;;5078548;28;20024;-71
2023/05/05 06:35:53;;;;;;;10.25;6.53;;;;;;;;;;5073730;28;20556;-71
2023/05/05 06:38:19;;;;;;;11.60;7.07;;;;;;;;;;5072887;28;20055;-71
2023/05/05 06:40:47;;;;;;;11.40;6.88;;;;;;;;;;5077596;28;20036;-71
2023/05/05 06:43:12;;;;;;;12.20;7.25;;;;;;;;;;5084689;28;20015;-71
2023/05/05 06:45:38;;;;;;;11.80;6.85;;;;;;;;;;5077684;28;20497;-71
2023/05/05 06:48:03;;;;;;;14.27;6.63;;;;;;;;;;5069395;28;20409;-71
2023/05/05 06:50:28;;;;;;;10.70;6.90;;;;;;;;;;5074258;28;20548;-71
2023/05/05 06:52:54;;;;;;;11.70;6.60;;;;;;;;;;5067587;28;20036;-71
2023/05/05 06:55:19;;;;;;;12.45;6.65;;;;;;;;;;5063660;28;20055;-71
2023/05/05 06:57:45;;;;;;;11.48;5.93;;;;;;;;;;5076415;28;20023;-71
2023/05/05 07:00:11;;;;;;;11.55;6.40;;;;;;;;;;5070697;28;20040;-71
2023/05/05 07:02:37;;;;;;;11.23;6.47;;;;;;;;;;5077410;28;20402;-71
2023/05/05 07:05:03;;;;;;;12.55;6.80;;;;;;;;;;5072545;28;20092;-70
2023/05/05 07:07:28;;;;;;;10.45;6.50;;;;;;;;;;5087910;28;20552;-67
2023/05/05 07:09:53;;;;;;;11.73;6.57;;;;;;;;;;5086492;28;20027;-70
2023/05/05 07:12:19;;;;;;;14.48;7.38;;;;;;;;;;5082406;28;20907;-71
2023/05/05 07:14:45;;;;;;;13.07;7.53;;;;;;;;;;5074153;28;20036;-70
2023/05/05 07:17:10;;;;;;;12.50;7.65;;;;;;;;;;5073491;28;20040;-70
2023/05/05 07:19:36;;;;;;;13.68;7.80;;;;;;;;;;5077709;28;20050;-70
2023/05/05 07:22:01;;;;;;;15.18;8.48;;;;;;;;;;5071291;28;20106;-70
2023/05/05 07:24:27;;;;;;;15.00;7.97;;;;;;;;;;5066529;28;20016;-70
2023/05/05 07:26:52;;;;;;;14.82;6.68;;;;;;;;;;5074904;28;20121;-70
2023/05/05 07:29:18;;;;;;;13.65;7.65;;;;;;;;;;5068755;28;20123;-70
2023/05/05 07:31:43;;;;;;;10.43;6.43;;;;;;;;;;5068264;28;20031;-70
2023/05/05 07:34:08;;;;;;;10.85;6.53;;;;;;;;;;5085687;28;20026;-70
2023/05/05 07:36:34;;;;;;;14.45;6.30;;;;;;;;;;5073700;28;20030;-70
2023/05/05 07:38:59;;;;;;;14.63;6.45;;;;;;;;;;5075462;28;20029;-70
2023/05/05 07:41:25;;;;;;;10.90;6.60;;;;;;;;;;5070523;28;20059;-70
2023/05/05 07:43:50;;;;;;;10.02;5.70;;;;;;;;;;5068474;28;20158;-70
2023/05/05 07:46:16;;;;;;;14.07;5.57;;;;;;;;;;5072093;28;20119;-70
2023/05/05 07:48:42;;;;;;;10.55;5.05;;;;;;;;;;5078405;28;20098;-70
2023/05/05 07:51:08;;;;;;;9.85;5.60;;;;;;;;;;5080457;28;20123;-70
2023/05/05 07:53:33;;;;;;;12.40;5.70;;;;;;;;;;5074398;28;20044;-70
2023/05/05 07:55:58;;;;;;;10.05;5.38;;;;;;;;;;5075915;28;20126;-70
2023/05/05 07:58:24;;;;;;;12.68;5.32;;;;;;;;;;5070541;28;20056;-70
2023/05/05 08:00:50;;;;;;;7.88;4.75;;;;;;;;;;5072744;28;20048;-69
2023/05/05 08:03:17;;;;;;;11.23;4.78;;;;;;;;;;5068191;28;20040;-70
2023/05/05 08:05:42;;;;;;;10.65;4.82;;;;;;;;;;5073969;28;20077;-70
2023/05/05 08:08:07;;;;;;;9.40;4.18;;;;;;;;;;5079686;28;20119;-70
2023/05/05 08:10:33;;;;;;;6.38;4.00;;;;;;;;;;5075480;28;20176;-69
2023/05/05 08:12:58;;;;;;;7.82;4.30;;;;;;;;;;5087879;28;20098;-70
2023/05/05 08:15:24;;;;;;;7.30;4.18;;;;;;;;;;5084931;28;20062;-70
2023/05/05 08:17:51;;;;;;;9.20;3.85;;;;;;;;;;5073923;28;20044;-70
2023/05/05 08:20:19;;;;;;;11.75;4.47;;;;;;;;;;5080131;28;20066;-69
2023/05/05 08:22:45;;;;;;;10.98;3.53;;;;;;;;;;5081387;28;20174;-70
2023/05/05 08:25:12;;;;;;;12.73;4.10;;;;;;;;;;5061117;28;20041;-70
2023/05/05 08:27:38;;;;;;;6.88;3.47;;;;;;;;;;5069426;28;20726;-70
2023/05/05 08:30:04;;;;;;;6.80;3.40;;;;;;;;;;5076209;28;20128;-70
2023/05/05 08:32:30;;;;;;;7.43;3.42;;;;;;;;;;5083575;28;20040;-70
2023/05/05 08:34:56;;;;;;;11.15;3.47;;;;;;;;;;5088322;28;20059;-70
2023/05/05 08:37:21;;;;;;;8.05;3.58;;;;;;;;;;5084512;28;20731;-70
2023/05/05 08:39:47;;;;;;;9.80;3.30;;;;;;;;;;5072232;28;20035;-70
2023/05/05 08:42:12;;;;;;;10.43;3.38;;;;;;;;;;5087120;28;20131;-68
2023/05/05 08:44:37;;;;;;;9.70;3.33;;;;;;;;;;5085834;28;20044;-70
2023/05/05 08:47:04;;;;;;;5.53;2.97;;;;;;;;;;5082862;28;20507;-71
2023/05/05 08:49:37;;;;;;;10.45;3.30;;;;;;;;;;5087450;28;20032;-70
2023/05/05 08:52:04;;;;;;;8.40;3.00;;;;;;;;;;5077375;28;20036;-69
2023/05/05 08:54:33;;;;;;;4.07;2.88;;;;;;;;;;5079649;28;20040;-70
2023/05/05 08:57:01;;;;;;;6.65;2.97;;;;;;;;;;5072495;28;20040;-70
2023/05/05 08:59:29;;;;;;;6.35;3.55;;;;;;;;;;5098134;27;20048;-71
2023/05/05 09:01:56;;;;;;;6.82;3.33;;;;;;;;;;5077979;28;20047;-69
2023/05/05 09:04:21;;;;;;;7.18;3.58;;;;;;;;;;5073851;28;20041;-70
2023/05/05 09:06:47;;;;;;;7.75;3.55;;;;;;;;;;5082087;28;20024;-70
2023/05/05 09:09:13;;;;;;;13.45;3.60;;;;;;;;;;5087660;28;20031;-69
2023/05/05 09:11:39;;;;;;;8.77;3.13;;;;;;;;;;5085576;28;20577;-70
2023/05/05 09:14:05;;;;;;;6.40;3.30;;;;;;;;;;5088772;28;20540;-70
2023/05/05 09:16:30;;;;;;;5.03;3.05;;;;;;;;;;5083149;28;20043;-70
2023/05/05 09:19:03;;;;;;;10.95;3.47;;;;;;;;;;5081811;28;20401;-70
2023/05/05 09:21:28;;;;;;;14.30;3.47;;;;;;;;;;5083701;28;20051;-70
2023/05/05 09:24:14;;;;;;;9.02;3.78;;;;;;;;;;5084156;28;20125;-70
2023/05/05 09:26:42;;;;;;;7.15;3.00;;;;;;;;;;5087166;28;20043;-70
2023/05/05 09:29:08;;;;;;;9.82;3.20;;;;;;;;;;5089581;28;20035;-70
2023/05/05 09:31:35;;;;;;;7.40;4.15;;;;;;;;;;5075410;28;20441;-70
2023/05/05 09:34:12;;;;;;;6.53;3.00;;;;;;;;;;5074455;28;20031;-70
2023/05/05 09:36:49;;;;;;;6.75;3.08;;;;;;;;;;5072257;28;20016;-71
2023/05/05 09:39:18;;;;;;;6.22;2.90;;;;;;;;;;5089539;28;20126;-70
2023/05/05 09:41:43;;;;;;;5.35;2.65;;;;;;;;;;5084933;28;20040;-71
2023/05/05 09:44:11;;;;;;;5.20;2.63;;;;;;;;;;5071391;28;20047;-70
2023/05/05 09:46:48;;;;;;;8.70;3.45;;;;;;;;;;5069880;28;20044;-71
2023/05/05 09:49:16;;;;;;;5.80;3.03;;;;;;;;;;5078047;28;20032;-70
2023/05/05 09:51:46;;;;;;;5.97;2.90;;;;;;;;;;5074917;28;20028;-70
2023/05/05 09:54:25;;;;;;;5.80;2.60;;;;;;;;;;5080541;28;20040;-70
2023/05/05 09:56:51;;;;;;;9.93;3.95;;;;;;;;;;5071241;28;20102;-70
2023/05/05 09:59:17;;;;;;;8.95;2.92;;;;;;;;;;5080370;28;20036;-71
2023/05/05 10:01:42;;;;;;;5.95;2.70;;;;;;;;;;5057594;28;20048;-70
2023/05/05 10:04:25;;;;;;;4.25;2.78;;;;;;;;;;5066527;28;20125;-70
2023/05/05 10:06:51;;;;;;;8.30;2.88;;;;;;;;;;5071395;28;20124;-70
2023/05/05 10:09:16;;;;;;;13.05;2.63;;;;;;;;;;5072621;28;20138;-71
2023/05/05 10:11:44;;;;;;;8.93;2.90;;;;;;;;;;5080376;28;20825;-71
2023/05/05 10:14:13;;;;;;;8.05;3.10;;;;;;;;;;5068304;28;21489;-71
2023/05/05 10:16:45;;;;;;;10.35;4.47;;;;;;;;;;5073715;28;20493;-70
2023/05/05 10:19:14;;;;;;;5.82;3.20;;;;;;;;;;5076085;28;20036;-69
2023/05/05 10:21:45;;;;;;;4.50;3.00;;;;;;;;;;5087647;28;20059;-71
2023/05/05 10:24:20;;;;;;;4.32;2.55;;;;;;;;;;5078640;28;20103;-71
2023/05/05 10:26:46;;;;;;;4.32;2.50;;;;;;;;;;5071814;28;20036;-69
2023/05/05 10:29:37;;;;;;;7.63;3.45;;;;;;;;;;5087644;28;20105;-70
2023/05/05 10:32:06;;;;;;;8.23;3.10;;;;;;;;;;5083690;28;20043;-70
2023/05/05 10:34:46;;;;;;;7.32;2.40;;;;;;;;;;5078819;28;20051;-70
2023/05/05 10:37:12;;;;;;;4.72;2.22;;;;;;;;;;5079022;28;20036;-70
2023/05/05 10:39:37;;;;;;;7.25;2.67;;;;;;;;;;5074309;28;20035;-70
2023/05/05 10:42:02;;;;;;;6.28;2.60;;;;;;;;;;5082562;28;20081;-70
2023/05/05 10:44:32;;;;;;;6.35;2.50;;;;;;;;;;5088266;28;20040;-70
2023/05/05 10:46:58;;;;;;;7.07;2.50;;;;;;;;;;5076550;28;20587;-70
2023/05/05 10:49:27;;;;;;;8.60;2.42;;;;;;;;;;5070291;28;20048;-70
2023/05/05 10:52:15;;;;;;;4.68;2.55;;;;;;;;;;5087183;28;20044;-70
2023/05/05 10:55:11;;;;;;;5.53;2.25;;;;;;;;;;5084355;28;20528;-70
2023/05/05 10:57:39;;;;;;;4.15;2.22;;;;;;;;;;5079801;28;20035;-69
2023/05/05 11:00:07;;;;;;;8.30;4.43;;;;;;;;;;5070138;28;20051;-70
2023/05/05 11:02:32;;;;;;;5.90;2.60;;;;;;;;;;5075497;28;20064;-71
2023/05/05 11:05:08;;;;;;;7.63;3.10;;;;;;;;;;5081360;28;20078;-71
2023/05/05 11:07:34;;;;;;;5.55;2.38;;;;;;;;;;5072580;28;20039;-70
2023/05/05 11:10:03;;;;;;;6.28;2.50;;;;;;;;;;5077528;28;20055;-70
2023/05/05 11:12:30;;;;;;;5.53;2.38;;;;;;;;;;5085053;28;20070;-70
2023/05/05 11:15:29;;;;;;;4.13;2.10;;;;;;;;;;5063009;28;20035;-70
2023/05/05 11:18:01;;;;;;;3.95;1.77;;;;;;;;;;5069433;28;20067;-70
2023/05/05 11:20:58;;;;;;;6.25;1.70;;;;;;;;;;5074011;28;20043;-71
2023/05/05 11:23:24;;;;;;;4.97;2.10;;;;;;;;;;5060496;28;20154;-71
2023/05/05 11:25:51;;;;;;;3.30;1.60;;;;;;;;;;5084259;28;20153;-70
2023/05/05 11:28:23;;;;;;;5.00;2.10;;;;;;;;;;5075731;28;20040;-70
2023/05/05 11:30:58;;;;;;;2.47;1.80;;;;;;;;;;5070428;28;20725;-70
2023/05/05 11:33:29;;;;;;;3.10;1.67;;;;;;;;;;5080560;28;20038;-70
2023/05/05 11:36:01;;;;;;;4.35;1.60;;;;;;;;;;5083181;28;20398;-70
2023/05/05 11:38:48;;;;;;;4.22;1.98;;;;;;;;;;5081112;28;20049;-69
2023/05/05 11:41:51;;;;;;;4.82;1.80;;;;;;;;;;5085293;28;20038;-70
2023/05/05 11:44:17;;;;;;;2.97;1.23;;;;;;;;;;5081082;28;20036;-70
2023/05/05 11:46:52;;;;;;;3.50;1.40;;;;;;;;;;5083130;28;20374;-70
2023/05/05 11:49:30;;;;;;;8.32;1.77;;;;;;;;;;5084464;28;20036;-70
2023/05/05 11:51:59;;;;;;;6.00;1.85;;;;;;;;;;5076621;28;20051;-71
2023/05/05 11:54:26;;;;;;;3.75;1.70;;;;;;;;;;5091528;28;20382;-71
2023/05/05 11:57:03;;;;;;;5.18;2.30;;;;;;;;;;5088115;28;20622;-70
2023/05/05 11:59:30;;;;;;;4.63;1.67;;;;;;;;;;5078627;28;20078;-70
2023/05/05 12:01:56;;;;;;;5.93;1.65;;;;;;;;;;5084768;28;20046;-70
2023/05/05 12:04:22;;;;;;;4.40;1.70;;;;;;;;;;5091164;28;20024;-70
2023/05/05 12:06:50;;;;;;;5.28;1.90;;;;;;;;;;5092249;28;20681;-71
2023/05/05 12:09:20;;;;;;;3.92;1.45;;;;;;;;;;5087457;28;20016;-69
2023/05/05 12:11:48;;;;;;;3.60;1.27;;;;;;;;;;5086428;28;20039;-70
2023/05/05 12:14:14;;;;;;;2.25;1.30;;;;;;;;;;5086002;28;20029;-70
2023/05/05 12:16:39;;;;;;;1.88;1.00;;;;;;;;;;5085779;28;20028;-70
2023/05/05 12:19:10;;;;;;;4.05;1.20;;;;;;;;;;5081953;28;20731;-70
2023/05/05 12:21:37;;;;;;;1.63;0.90;;;;;;;;;;5075984;28;20052;-70
2023/05/05 12:24:02;;;;;;;1.33;0.82;;;;;;;;;;5085184;28;20493;-70
2023/05/05 12:26:29;;;;;;;1.67;0.88;;;;;;;;;;5085204;28;20043;-70
2023/05/05 12:28:56;;;;;;;2.15;1.00;;;;;;;;;;5086592;28;20032;-71
2023/05/05 12:31:22;;;;;;;3.03;1.15;;;;;;;;;;5086047;28;20032;-70
2023/05/05 12:33:48;;;;;;;5.22;1.35;;;;;;;;;;5085274;28;20043;-69
2023/05/05 12:36:14;;;;;;;4.10;1.80;;;;;;;;;;5086830;28;20016;-70
2023/05/05 12:38:40;;;;;;;2.75;1.30;;;;;;;;;;5083898;28;20078;-70
2023/05/05 12:41:06;;;;;;;2.88;1.30;;;;;;;;;;5082230;28;20055;-70
2023/05/05 12:43:33;;;;;;;3.30;2.00;;;;;;;;;;5085265;28;20032;-70
2023/05/05 12:46:12;;;;;;;3.38;1.20;;;;;;;;;;5086434;28;20032;-70
2023/05/05 12:48:40;;;;;;;2.05;0.93;;;;;;;;;;5082242;28;20057;-70
2023/05/05 12:51:09;;;;;;;4.40;1.30;;;;;;;;;;5084425;28;20008;-70
2023/05/05 12:53:35;;;;;;;3.20;1.23;;;;;;;;;;5086482;28;20055;-70
2023/05/05 12:56:00;;;;;;;4.82;1.30;;;;;;;;;;5084763;28;20056;-70
2023/05/05 12:58:26;;;;;;;2.90;1.52;;;;;;;;;;5084457;28;20673;-70
2023/05/05 13:01:09;;;;;;;3.55;1.35;;;;;;;;;;5076394;28;20631;-70
2023/05/05 13:03:34;;;;;;;2.53;1.05;;;;;;;;;;5069829;28;20109;-70
2023/05/05 13:06:00;;;;;;;1.85;1.30;;;;;;;;;;5084433;28;20082;-70
2023/05/05 13:08:43;;;;;;;2.92;1.10;;;;;;;;;;5080367;28;20055;-71
2023/05/05 13:11:09;;;;;;;1.10;0.90;;;;;;;;;;5086424;28;20063;-71
2023/05/05 13:13:35;;;;;;;2.30;0.88;;;;;;;;;;5089402;28;20083;-70
2023/05/05 13:16:00;;;;;;;1.52;0.90;;;;;;;;;;5086634;28;20121;-70
2023/05/05 13:18:26;;;;;;;2.78;0.93;;;;;;;;;;5082604;28;20086;-69
2023/05/05 13:20:51;;;;;;;0.85;0.63;;;;;;;;;;5082591;28;20039;-69
2023/05/05 13:23:18;;;;;;;1.85;0.70;;;;;;;;;;5073495;28;20114;-69
2023/05/05 13:25:43;;;;;;;2.00;0.82;;;;;;;;;;5085869;28;20129;-69
2023/05/05 13:28:09;;;;;;;0.52;0.52;;;;;;;;;;5082868;28;20119;-69
2023/05/05 13:30:34;;;;;;;1.38;0.68;;;;;;;;;;5086768;28;20031;-69
2023/05/05 13:33:02;;;;;;;0.75;0.68;;;;;;;;;;5089793;28;20032;-69
2023/05/05 13:35:28;;;;;;;1.80;0.55;;;;;;;;;;5089380;28;20032;-69
2023/05/05 13:37:54;;;;;;;1.10;0.68;;;;;;;;;;5087568;28;20040;-69
2023/05/05 13:40:19;;;;;;;0.82;0.60;;;;;;;;;;5074969;28;20028;-70
2023/05/05 13:42:45;;;;;;;1.10;0.80;;;;;;;;;;5083352;28;20468;-70
2023/05/05 13:45:12;;;;;;;1.65;0.90;;;;;;;;;;5077858;28;20020;-70
2023/05/05 13:47:39;;;;;;;1.80;0.90;;;;;;;;;;5087716;28;20050;-68
2023/05/05 13:50:06;;;;;;;1.42;0.80;;;;;;;;;;5081640;28;20494;-69
2023/05/05 13:52:31;;;;;;;12.27;2.20;;;;;;;;;;5084475;28;20527;-69
2023/05/05 13:54:57;;;;;;;1.98;0.75;;;;;;;;;;5083006;28;20032;-69
2023/05/05 13:57:22;;;;;;;6.28;1.02;;;;;;;;;;5077836;28;20024;-69
2023/05/05 13:59:47;;;;;;;3.90;0.90;;;;;;;;;;5074917;28;20056;-69
2023/05/05 14:02:13;;;;;;;3.42;1.02;;;;;;;;;;5073884;28;20041;-70
2023/05/05 14:04:38;;;;;;;2.72;0.90;;;;;;;;;;5075480;28;20055;-69
2023/05/05 14:07:04;;;;;;;2.95;0.88;;;;;;;;;;5088153;28;20047;-69
2023/05/05 14:09:29;;;;;;;0.93;0.82;;;;;;;;;;5085663;28;20039;-69
2023/05/05 14:11:54;;;;;;;1.23;0.95;;;;;;;;;;5081903;28;20128;-70
2023/05/05 14:14:20;;;;;;;2.75;0.90;;;;;;;;;;5078712;28;20651;-69
2023/05/05 14:16:46;;;;;;;2.40;0.98;;;;;;;;;;5088116;28;20028;-70
2023/05/05 14:19:11;;;;;;;1.40;1.00;;;;;;;;;;5073874;28;20076;-70
2023/05/05 14:21:37;;;;;;;1.45;1.00;;;;;;;;;;5075411;28;20028;-70
2023/05/05 14:24:02;;;;;;;2.95;1.27;;;;;;;;;;5079487;28;20481;-70
2023/05/05 14:26:28;;;;;;;2.42;1.05;;;;;;;;;;5078650;28;20040;-70
2023/05/05 14:28:53;;;;;;;3.90;1.00;;;;;;;;;;5079863;28;20044;-69
2023/05/05 14:31:18;;;;;;;2.42;0.98;;;;;;;;;;5074729;28;20043;-69
2023/05/05 14:33:44;;;;;;;1.95;0.80;;;;;;;;;;5070789;28;20051;-69
2023/05/05 14:36:09;;;;;;;2.75;1.77;;;;;;;;;;5081167;28;20031;-69
2023/05/05 14:38:34;;;;;;;2.60;1.33;;;;;;;;;;5075839;28;20431;-70
2023/05/05 14:41:00;;;;;;;2.42;1.00;;;;;;;;;;5080911;28;20074;-70
2023/05/05 14:43:25;;;;;;;2.42;1.05;;;;;;;;;;5087260;28;20082;-69